createdAt,value
2023-05-19T00:02:05.432Z,10.90
2023-05-19T00:04:33.424Z,10.80
2023-05-19T00:07:00.847Z,10.70
2023-05-19T00:09:27.803Z,10.60
2023-05-19T00:11:54.564Z,10.60
2023-05-19T00:14:21.326Z,10.60
2023-05-19T00:16:48.747Z,10.60
2023-05-19T00:19:16.778Z,10.50
2023-05-19T00:21:43.470Z,10.50
2023-05-19T00:24:10.071Z,10.50
2023-05-19T00:26:37.115Z,10.50
2023-05-19T00:29:03.725Z,10.50
2023-05-19T00:31:31.655Z,10.50
2023-05-19T00:33:58.280Z,10.50
2023-05-19T00:36:25.318Z,10.60
2023-05-19T00:38:52.093Z,10.60
2023-05-19T00:41:18.764Z,10.60
2023-05-19T00:43:45.560Z,10.60
2023-05-19T00:46:12.751Z,10.60
2023-05-19T00:48:39.570Z,10.60
2023-05-19T00:51:06.547Z,10.60
2023-05-19T00:53:34.022Z,10.60
2023-05-19T00:56:01.647Z,10.50
2023-05-19T00:58:30.523Z,10.50
2023-05-19T01:01:04.172Z,10.40
2023-05-19T01:03:35.025Z,10.40
2023-05-19T01:06:04.984Z,10.30
2023-05-19T01:08:38.485Z,10.20
2023-05-19T01:11:06.648Z,10.10
2023-05-19T01:13:34.352Z,10.10
2023-05-19T01:16:22.370Z,10.00
2023-05-19T01:19:04.458Z,9.90
2023-05-19T01:21:55.933Z,9.80
2023-05-19T01:24:41.260Z,9.80
2023-05-19T01:27:32.598Z,9.80
2023-05-19T01:32:42.079Z,9.90
2023-05-19T01:35:10.039Z,9.90
2023-05-19T01:37:38.669Z,9.90
2023-05-19T01:40:07.888Z,9.90
2023-05-19T01:42:37.777Z,9.90
2023-05-19T01:45:11.471Z,10.00
2023-05-19T01:47:46.636Z,9.90
2023-05-19T01:50:13.518Z,9.90
2023-05-19T01:52:40.147Z,9.90
2023-05-19T01:55:07.603Z,9.90
2023-05-19T01:58:10.797Z,9.80
2023-05-19T02:00:43.172Z,9.70
2023-05-19T02:03:41.795Z,9.70
2023-05-19T02:06:45.979Z,9.50
2023-05-19T02:09:23.197Z,9.70
2023-05-19T02:12:00.272Z,9.70
2023-05-19T02:14:39.199Z,9.70
2023-05-19T02:17:06.318Z,9.80
2023-05-19T02:19:38.599Z,9.80
2023-05-19T02:22:05.491Z,9.70
2023-05-19T02:24:32.109Z,9.80
2023-05-19T02:26:58.761Z,9.80
2023-05-19T02:29:25.778Z,9.80
2023-05-19T02:31:52.410Z,9.80
2023-05-19T02:34:19.101Z,9.80
2023-05-19T02:36:45.764Z,9.80
2023-05-19T02:39:12.953Z,9.80
2023-05-19T02:41:39.577Z,9.80
2023-05-19T02:44:06.293Z,9.80
2023-05-19T02:46:33.124Z,9.80
2023-05-19T02:48:59.895Z,9.90
2023-05-19T02:51:26.536Z,9.80
2023-05-19T02:53:53.151Z,9.90
2023-05-19T02:56:19.710Z,9.80
2023-05-19T02:58:46.356Z,9.80
2023-05-19T03:01:13.071Z,9.80
2023-05-19T03:03:39.845Z,9.80
2023-05-19T03:06:08.692Z,9.70
2023-05-19T03:08:36.203Z,9.70
2023-05-19T03:11:03.365Z,9.70
2023-05-19T03:13:30.110Z,9.70
2023-05-19T03:15:58.728Z,9.70
2023-05-19T03:18:26.542Z,9.60
2023-05-19T03:20:56.581Z,9.60
2023-05-19T03:23:23.261Z,9.50
2023-05-19T03:25:49.931Z,9.50
2023-05-19T03:28:17.190Z,9.40
2023-05-19T03:30:44.074Z,9.40
2023-05-19T03:33:11.009Z,9.30
2023-05-19T03:35:37.838Z,9.30
2023-05-19T03:38:04.495Z,9.30
2023-05-19T03:40:31.332Z,9.30
2023-05-19T03:42:58.178Z,9.20
2023-05-19T03:45:24.850Z,9.10
2023-05-19T03:47:51.496Z,9.10
2023-05-19T03:50:18.326Z,9.00
2023-05-19T03:52:46.546Z,8.90
2023-05-19T03:55:14.672Z,8.80
2023-05-19T03:57:43.251Z,8.80
2023-05-19T04:00:13.786Z,8.80
2023-05-19T04:02:41.038Z,8.80
2023-05-19T04:05:08.536Z,8.70
2023-05-19T04:07:36.066Z,8.70
2023-05-19T04:10:04.818Z,8.70
2023-05-19T04:12:31.966Z,8.60
2023-05-19T04:14:58.942Z,8.60
2023-05-19T04:17:26.525Z,8.70
2023-05-19T04:19:53.993Z,8.70
2023-05-19T04:22:20.912Z,8.70
2023-05-19T04:24:47.705Z,8.80
2023-05-19T04:27:16.076Z,8.80
2023-05-19T04:29:42.718Z,8.90
2023-05-19T04:32:10.675Z,8.90
2023-05-19T04:34:40.737Z,9.20
2023-05-19T04:37:10.597Z,8.90
2023-05-19T04:39:42.932Z,9.00
2023-05-19T04:42:11.779Z,9.20
2023-05-19T04:44:40.123Z,9.20
2023-05-19T04:47:10.286Z,9.20
2023-05-19T04:49:40.240Z,9.20
2023-05-19T04:52:10.881Z,9.30
2023-05-19T04:54:38.616Z,9.40
2023-05-19T04:57:05.899Z,9.50
2023-05-19T04:59:32.633Z,9.60
2023-05-19T05:01:59.288Z,9.70
2023-05-19T05:04:25.985Z,9.80
2023-05-19T05:06:52.643Z,9.60
2023-05-19T05:09:19.951Z,9.80
2023-05-19T05:11:46.929Z,10.10
2023-05-19T05:14:13.916Z,10.30
2023-05-19T05:16:40.863Z,10.30
2023-05-19T05:19:07.908Z,10.40
2023-05-19T05:21:34.779Z,10.50
2023-05-19T05:24:01.697Z,10.60
2023-05-19T05:26:34.332Z,10.70
2023-05-19T05:29:01.510Z,10.80
2023-05-19T05:31:28.695Z,10.90
2023-05-19T05:33:55.626Z,11.10
2023-05-19T05:36:22.256Z,11.10
2023-05-19T05:38:48.891Z,11.20
2023-05-19T05:41:16.019Z,11.40
2023-05-19T05:43:42.640Z,11.50
2023-05-19T05:46:09.347Z,11.40
2023-05-19T05:48:36.194Z,11.60
2023-05-19T05:51:03.187Z,11.90
2023-05-19T05:53:34.609Z,11.80
2023-05-19T05:56:01.489Z,11.90
2023-05-19T05:58:28.801Z,11.60
2023-05-19T06:00:57.586Z,11.60
2023-05-19T06:03:24.664Z,11.80
2023-05-19T06:05:51.547Z,11.80
2023-05-19T06:08:18.277Z,11.90
2023-05-19T06:10:47.204Z,12.00
2023-05-19T06:13:17.800Z,12.10
2023-05-19T06:15:44.504Z,11.70
2023-05-19T06:18:11.185Z,11.90
2023-05-19T06:20:37.878Z,12.00
2023-05-19T06:23:04.481Z,12.30
2023-05-19T06:25:31.273Z,12.50
2023-05-19T06:27:58.005Z,12.90
2023-05-19T06:30:24.722Z,12.80
2023-05-19T06:32:51.415Z,13.30
2023-05-19T06:35:18.103Z,13.70
2023-05-19T06:37:44.741Z,14.30
2023-05-19T06:40:12.044Z,14.70
2023-05-19T06:42:38.712Z,14.90
2023-05-19T06:45:05.949Z,14.50
2023-05-19T06:47:32.659Z,14.20
2023-05-19T06:49:59.298Z,14.30
2023-05-19T06:52:26.049Z,14.00
2023-05-19T06:54:52.701Z,13.60
2023-05-19T06:57:19.301Z,13.40
2023-05-19T06:59:46.710Z,13.40
2023-05-19T07:02:13.527Z,14.00
2023-05-19T07:04:40.911Z,14.70
2023-05-19T07:07:07.569Z,14.30
2023-05-19T07:09:34.518Z,14.00
2023-05-19T07:12:01.458Z,13.90
2023-05-19T07:14:28.045Z,14.10
2023-05-19T07:16:54.859Z,14.10
2023-05-19T07:19:22.402Z,14.40
2023-05-19T07:21:49.383Z,14.40
2023-05-19T07:24:15.961Z,14.50
2023-05-19T07:26:42.830Z,14.70
2023-05-19T07:29:09.471Z,15.00
2023-05-19T07:31:36.173Z,15.00
2023-05-19T07:34:03.064Z,14.90
2023-05-19T07:36:29.757Z,14.90
2023-05-19T07:38:56.497Z,14.50
2023-05-19T07:41:23.148Z,13.90
2023-05-19T07:43:50.163Z,13.60
2023-05-19T07:46:16.887Z,13.70
2023-05-19T07:48:43.692Z,13.70
2023-05-19T07:51:12.615Z,13.60
2023-05-19T07:53:39.369Z,13.80
2023-05-19T07:56:06.478Z,14.10
2023-05-19T07:58:33.247Z,14.40
2023-05-19T08:01:00.409Z,14.80
2023-05-19T08:03:27.420Z,15.10
2023-05-19T08:05:54.277Z,15.10
2023-05-19T08:08:22.323Z,15.40
2023-05-19T08:10:48.955Z,15.40
2023-05-19T08:13:15.634Z,14.80
2023-05-19T08:15:42.763Z,14.40
2023-05-19T08:18:09.671Z,14.30
2023-05-19T08:20:37.492Z,13.90
2023-05-19T08:23:04.220Z,14.20
2023-05-19T08:25:30.884Z,13.90
2023-05-19T08:27:57.580Z,13.80
2023-05-19T08:30:24.596Z,14.10
2023-05-19T08:32:51.701Z,14.50
2023-05-19T08:35:18.385Z,14.10
2023-05-19T08:37:44.990Z,13.80
2023-05-19T08:40:17.461Z,13.90
2023-05-19T08:42:45.548Z,13.90
2023-05-19T08:45:12.584Z,14.30
2023-05-19T08:47:41.414Z,14.50
2023-05-19T08:50:10.791Z,14.60
2023-05-19T08:53:01.407Z,14.10
2023-05-19T08:55:36.518Z,14.10
2023-05-19T08:58:04.879Z,14.00
2023-05-19T09:00:32.646Z,13.90
2023-05-19T09:03:17.515Z,14.10
2023-05-19T09:05:48.619Z,13.80
2023-05-19T09:08:16.063Z,14.20
2023-05-19T09:10:42.687Z,14.30
2023-05-19T09:13:09.646Z,14.60
2023-05-19T09:15:39.104Z,14.80
2023-05-19T09:18:08.485Z,14.80
2023-05-19T09:20:40.712Z,14.40
2023-05-19T09:23:08.352Z,14.10
2023-05-19T09:25:35.248Z,14.30
2023-05-19T09:28:02.207Z,14.50
2023-05-19T09:30:28.989Z,14.10
2023-05-19T09:32:55.961Z,14.20
2023-05-19T09:35:22.657Z,14.10
2023-05-19T09:37:49.228Z,14.00
2023-05-19T09:40:16.380Z,14.10
2023-05-19T09:42:44.206Z,14.40
2023-05-19T09:45:11.393Z,14.50
2023-05-19T09:47:39.604Z,14.60
2023-05-19T09:50:08.849Z,14.50
2023-05-19T09:52:39.194Z,14.40
2023-05-19T09:55:09.886Z,14.60
2023-05-19T09:57:38.221Z,14.90
2023-05-19T10:00:11.827Z,15.00
2023-05-19T10:02:42.661Z,15.10
2023-05-19T10:05:12.852Z,15.50
2023-05-19T10:07:40.775Z,16.00
2023-05-19T10:10:11.405Z,15.90
2023-05-19T10:12:39.548Z,16.10
2023-05-19T10:15:26.626Z,16.00
2023-05-19T10:17:53.946Z,16.00
2023-05-19T10:20:20.782Z,15.70
2023-05-19T10:22:48.529Z,16.00
2023-05-19T10:25:18.387Z,16.10
2023-05-19T10:28:01.765Z,16.40
2023-05-19T10:30:41.622Z,15.50
2023-05-19T10:33:13.068Z,15.30
2023-05-19T10:35:45.306Z,14.90
2023-05-19T10:38:35.631Z,14.60
2023-05-19T10:41:40.305Z,15.00
2023-05-19T10:44:33.747Z,15.40
2023-05-19T10:47:00.434Z,15.60
2023-05-19T10:49:27.388Z,16.00
2023-05-19T10:51:56.749Z,16.30
2023-05-19T10:54:43.438Z,16.00
2023-05-19T10:57:18.039Z,15.90
2023-05-19T10:59:45.251Z,15.30
2023-05-19T11:02:41.491Z,15.30
2023-05-19T11:05:20.483Z,15.90
2023-05-19T11:08:06.077Z,15.50
2023-05-19T11:10:32.809Z,15.50
2023-05-19T11:13:00.174Z,15.40
2023-05-19T11:15:28.018Z,15.50
2023-05-19T11:17:55.213Z,15.50
2023-05-19T11:20:27.108Z,15.30
2023-05-19T11:23:08.153Z,15.20
2023-05-19T11:25:48.980Z,15.20
2023-05-19T11:28:19.133Z,15.30
2023-05-19T11:30:53.339Z,15.70
2023-05-19T11:33:21.495Z,15.50
2023-05-19T11:35:50.336Z,15.40
2023-05-19T11:38:18.435Z,15.70
2023-05-19T11:40:45.258Z,16.00
2023-05-19T11:43:11.957Z,16.40
2023-05-19T11:45:38.949Z,16.60
2023-05-19T11:48:06.855Z,16.30
2023-05-19T11:50:33.733Z,16.30
2023-05-19T11:53:01.348Z,16.00
2023-05-19T11:55:28.710Z,16.10
2023-05-19T11:58:03.852Z,15.80
2023-05-19T12:00:39.231Z,15.40
2023-05-19T12:03:07.176Z,15.50
2023-05-19T12:05:40.918Z,15.60
2023-05-19T12:08:10.128Z,15.70
2023-05-19T12:10:38.264Z,15.70
2023-05-19T12:13:08.905Z,15.70
2023-05-19T12:15:36.420Z,15.70
2023-05-19T12:18:03.252Z,16.20
2023-05-19T12:20:32.344Z,16.30
2023-05-19T12:23:00.613Z,16.00
2023-05-19T12:25:28.945Z,16.00
2023-05-19T12:28:02.995Z,16.30
2023-05-19T12:30:30.867Z,16.40
2023-05-19T12:32:58.071Z,16.20
2023-05-19T12:35:30.567Z,16.30
2023-05-19T12:37:57.764Z,16.30
2023-05-19T12:40:25.733Z,16.30
2023-05-19T12:42:58.925Z,15.50
2023-05-19T12:45:27.954Z,15.90
2023-05-19T12:47:54.765Z,16.10
2023-05-19T12:50:21.440Z,15.80
2023-05-19T12:52:51.976Z,15.80
2023-05-19T12:55:20.496Z,15.90
2023-05-19T12:57:56.894Z,15.40
2023-05-19T13:00:32.877Z,15.60
2023-05-19T13:03:08.487Z,15.70
2023-05-19T13:05:40.097Z,15.60
2023-05-19T13:08:07.951Z,15.30
2023-05-19T13:10:36.123Z,15.20
2023-05-19T13:13:03.540Z,15.30
2023-05-19T13:15:34.431Z,15.30
2023-05-19T13:18:03.286Z,15.20
2023-05-19T13:20:30.628Z,15.10
2023-05-19T13:22:57.504Z,15.00
2023-05-19T13:25:24.404Z,15.00
2023-05-19T13:27:51.081Z,15.20
2023-05-19T13:30:18.810Z,15.40
2023-05-19T13:32:45.992Z,15.50
2023-05-19T13:35:13.832Z,16.10
2023-05-19T13:37:42.376Z,16.50
2023-05-19T13:40:09.630Z,16.30
2023-05-19T13:42:36.507Z,16.60
2023-05-19T13:45:03.758Z,17.00
2023-05-19T13:47:30.720Z,16.80
2023-05-19T13:50:04.983Z,16.70
2023-05-19T13:52:32.405Z,16.00
2023-05-19T13:54:59.058Z,15.80
2023-05-19T13:57:26.342Z,15.60
2023-05-19T14:00:02.461Z,15.30
2023-05-19T14:02:29.825Z,15.20
2023-05-19T14:04:56.755Z,14.90
2023-05-19T14:07:23.532Z,14.80
2023-05-19T14:09:51.094Z,14.80
2023-05-19T14:12:17.865Z,14.80
2023-05-19T14:14:44.792Z,14.70
2023-05-19T14:17:11.830Z,14.70
2023-05-19T14:19:38.472Z,14.50
2023-05-19T14:22:05.178Z,14.60
2023-05-19T14:24:31.889Z,14.90
2023-05-19T14:26:58.547Z,15.30
2023-05-19T14:29:25.316Z,15.40
2023-05-19T14:31:52.022Z,15.40
2023-05-19T14:34:20.990Z,15.70
2023-05-19T14:36:48.658Z,15.80
2023-05-19T14:39:15.558Z,15.60
2023-05-19T14:41:42.230Z,15.70
2023-05-19T14:44:08.854Z,15.90
2023-05-19T14:46:36.089Z,16.10
2023-05-19T14:49:03.474Z,16.20
2023-05-19T14:51:30.135Z,16.10
2023-05-19T14:53:56.694Z,15.90
2023-05-19T14:56:23.314Z,15.80
2023-05-19T14:58:49.934Z,15.80
2023-05-19T15:01:16.661Z,15.50
2023-05-19T15:03:43.286Z,15.20
2023-05-19T15:06:10.856Z,15.30
2023-05-19T15:08:37.882Z,15.60
2023-05-19T15:11:04.648Z,15.90
2023-05-19T15:13:31.292Z,15.90
2023-05-19T15:16:12.395Z,16.00
2023-05-19T15:18:43.411Z,15.60
2023-05-19T15:21:10.252Z,15.70
2023-05-19T15:23:36.853Z,15.60
2023-05-19T15:26:03.711Z,15.60
2023-05-19T15:28:30.420Z,15.40
2023-05-19T15:30:57.098Z,15.40
2023-05-19T15:33:23.727Z,15.20
2023-05-19T15:35:52.068Z,15.40
2023-05-19T15:38:19.725Z,15.50
2023-05-19T15:40:46.794Z,15.50
2023-05-19T15:43:13.622Z,15.60
2023-05-19T15:45:40.781Z,15.90
2023-05-19T15:48:07.525Z,16.00
2023-05-19T15:50:34.563Z,16.40
2023-05-19T15:53:01.550Z,16.70
2023-05-19T15:55:28.324Z,16.60
2023-05-19T15:57:55.002Z,16.60
2023-05-19T16:00:21.788Z,16.30
2023-05-19T16:02:48.692Z,16.00
2023-05-19T16:05:15.802Z,15.70
2023-05-19T16:07:42.375Z,15.90
2023-05-19T16:10:09.510Z,16.00
2023-05-19T16:12:36.914Z,16.10
2023-05-19T16:15:04.060Z,16.20
2023-05-19T16:17:30.922Z,16.40
2023-05-19T16:22:25.405Z,16.70
2023-05-19T16:24:52.438Z,16.90
2023-05-19T16:27:19.170Z,16.60
2023-05-19T16:29:45.898Z,16.90
2023-05-19T16:32:13.061Z,17.20
2023-05-19T16:34:39.926Z,16.90
2023-05-19T16:37:06.771Z,16.70
2023-05-19T16:39:36.809Z,17.00
2023-05-19T16:42:04.398Z,16.70
2023-05-19T16:44:31.068Z,16.90
2023-05-19T16:46:57.926Z,17.10
2023-05-19T16:49:24.571Z,17.20
2023-05-19T17:41:02.439Z,18.80
2023-05-19T17:43:29.492Z,18.50
2023-05-19T17:45:57.211Z,17.90
2023-05-19T17:48:25.754Z,17.40
2023-05-19T17:50:52.379Z,17.10
2023-05-19T17:53:19.220Z,16.70
2023-05-19T17:55:51.276Z,16.50
2023-05-19T17:58:18.792Z,16.30
2023-05-19T18:00:45.761Z,16.10
2023-05-19T18:03:12.723Z,15.90
2023-05-19T18:05:40.108Z,15.60
2023-05-19T18:08:09.154Z,15.60
2023-05-19T18:10:37.676Z,15.30
2023-05-19T18:13:05.249Z,15.20
2023-05-19T18:15:32.112Z,15.10
2023-05-19T18:17:58.943Z,15.10
2023-05-19T18:20:25.608Z,14.90
2023-05-19T18:22:52.245Z,14.80
2023-05-19T18:25:19.985Z,14.70
2023-05-19T18:27:47.394Z,14.50
2023-05-19T18:30:14.144Z,14.30
2023-05-19T18:32:40.810Z,14.10
2023-05-19T18:35:08.559Z,13.90
2023-05-19T18:37:35.617Z,13.70
2023-05-19T18:40:02.204Z,13.50
2023-05-19T18:42:28.867Z,13.40
2023-05-19T18:44:55.432Z,13.30
2023-05-19T18:47:22.963Z,13.20
2023-05-19T18:49:49.976Z,13.10
2023-05-19T18:52:16.718Z,13.00
2023-05-19T18:54:45.839Z,12.90
2023-05-19T18:57:12.785Z,12.80
2023-05-19T18:59:39.408Z,12.70
2023-05-19T19:02:06.549Z,12.60
2023-05-19T19:04:33.607Z,12.40
2023-05-19T19:07:01.106Z,12.30
2023-05-19T19:09:27.647Z,12.20
2023-05-19T19:11:54.241Z,12.10
2023-05-19T19:14:20.883Z,12.00
2023-05-19T19:16:47.502Z,11.90
2023-05-19T19:19:14.241Z,11.80
2023-05-19T19:21:41.084Z,11.80
2023-05-19T19:24:07.706Z,11.70
2023-05-19T19:26:34.344Z,11.70
2023-05-19T19:29:00.972Z,11.70
2023-05-19T19:31:28.800Z,11.70
2023-05-19T19:34:02.895Z,11.70
2023-05-19T19:36:29.699Z,11.70
2023-05-19T19:38:56.333Z,11.80
2023-05-19T19:41:23.194Z,11.90
2023-05-19T19:43:50.853Z,12.00
2023-05-19T19:46:17.484Z,12.10
2023-05-19T19:48:44.181Z,12.20
2023-05-19T19:51:10.785Z,12.30
2023-05-19T19:53:37.459Z,12.40
2023-05-19T19:56:05.091Z,12.50
2023-05-19T19:58:31.773Z,12.50
2023-05-19T20:01:02.953Z,12.50
2023-05-19T20:03:30.065Z,12.50
2023-05-19T20:05:57.001Z,12.50
2023-05-19T20:08:24.543Z,12.60
2023-05-19T20:10:51.610Z,12.60
2023-05-19T20:13:18.937Z,12.60
2023-05-19T20:15:46.616Z,12.60
2023-05-19T20:18:13.321Z,12.60
2023-05-19T20:20:40.403Z,12.50
2023-05-19T20:23:10.170Z,12.50
2023-05-19T20:25:57.822Z,12.50
2023-05-19T20:28:29.544Z,12.50
2023-05-19T20:30:56.241Z,12.50
2023-05-19T20:33:22.889Z,12.40
2023-05-19T20:35:49.512Z,12.50
2023-05-19T20:38:16.291Z,12.40
2023-05-19T20:40:42.954Z,12.40
2023-05-19T20:43:09.589Z,12.40
2023-05-19T20:45:36.389Z,12.40
2023-05-19T20:48:03.741Z,12.40
2023-05-19T20:50:30.704Z,12.40
2023-05-19T20:52:57.443Z,12.40
2023-05-19T20:55:24.124Z,12.40
2023-05-19T20:57:50.932Z,12.40
2023-05-19T21:00:17.833Z,12.40
2023-05-19T21:02:44.741Z,12.30
2023-05-19T21:05:11.630Z,12.30
2023-05-19T21:07:38.389Z,12.20
2023-05-19T21:10:05.593Z,12.20
2023-05-19T21:12:34.031Z,12.20
2023-05-19T21:15:01.749Z,12.20
2023-05-19T21:17:28.500Z,12.20
2023-05-19T21:19:58.214Z,12.20
2023-05-19T21:22:26.650Z,12.20
2023-05-19T21:24:54.105Z,12.20
2023-05-19T21:27:21.357Z,12.20
2023-05-19T21:29:52.353Z,12.20
2023-05-19T21:32:19.290Z,12.20
2023-05-19T21:34:46.192Z,12.20
2023-05-19T21:37:12.871Z,12.20
2023-05-19T21:39:39.491Z,12.20
2023-05-19T21:42:06.374Z,12.20
2023-05-19T21:44:33.059Z,12.20
2023-05-19T21:46:59.736Z,12.20
2023-05-19T21:49:26.466Z,12.20
2023-05-19T21:51:53.093Z,12.20
2023-05-19T21:54:19.722Z,12.10
2023-05-19T21:56:46.344Z,12.10
2023-05-19T21:59:13.098Z,12.10
2023-05-19T22:01:41.008Z,12.10
2023-05-19T22:04:09.281Z,11.90
2023-05-19T22:06:35.983Z,11.80
2023-05-19T22:09:02.632Z,11.70
2023-05-19T22:11:29.384Z,11.60
2023-05-19T22:13:56.318Z,11.50
2023-05-19T22:16:22.956Z,11.40
2023-05-19T22:18:49.656Z,11.30
2023-05-19T22:21:16.440Z,11.20
2023-05-19T22:23:43.513Z,11.00
2023-05-19T22:26:10.436Z,10.90
2023-05-19T22:28:37.154Z,10.80
2023-05-19T22:31:03.904Z,10.60
2023-05-19T22:33:30.835Z,10.30
2023-05-19T22:35:57.641Z,10.60
2023-05-19T22:38:24.248Z,10.60
2023-05-19T22:40:50.949Z,10.60
2023-05-19T22:43:17.572Z,10.50
2023-05-19T22:45:44.320Z,10.50
2023-05-19T22:48:11.485Z,10.50
2023-05-19T22:50:38.189Z,10.40
2023-05-19T22:53:04.783Z,10.30
2023-05-19T22:55:31.708Z,10.20
2023-05-19T22:57:58.481Z,10.30
2023-05-19T23:00:25.162Z,10.20
2023-05-19T23:02:51.908Z,10.10
2023-05-19T23:05:18.537Z,10.00
2023-05-19T23:07:45.347Z,10.00
2023-05-19T23:10:11.984Z,9.90
2023-05-19T23:12:39.878Z,9.90
2023-05-19T23:15:07.936Z,10.00
2023-05-19T23:17:34.594Z,10.00
2023-05-19T23:20:01.396Z,10.00
2023-05-19T23:22:28.224Z,9.90
2023-05-19T23:24:54.867Z,10.00
2023-05-19T23:27:21.472Z,10.00
2023-05-19T23:29:49.180Z,10.10
2023-05-19T23:32:15.951Z,10.10
2023-05-19T23:34:42.789Z,10.20
2023-05-19T23:37:09.728Z,10.20
2023-05-19T23:39:38.152Z,10.30
2023-05-19T23:42:05.669Z,10.20
2023-05-19T23:44:32.361Z,10.20
2023-05-19T23:46:59.263Z,10.20
2023-05-19T23:49:26.024Z,10.20
2023-05-19T23:51:52.702Z,10.20
2023-05-19T23:54:19.351Z,10.10
2023-05-19T23:56:46.091Z,10.10
2023-05-19T23:59:12.665Z,10.10
